Time;durP1;ratioP1;P1;durP2;ratioP2;P2;SDS_P1;SDS_P2;PMS_P1;PMS_P2;Temp;Humidity;BMP_temperature;BMP_pressure;BME280_temperature;BME280_humidity;BME280_pressure;Samples;Min_cycle;Max_cycle;Signal;HPM_P1;HPM_P2
2022/07/24 00:02:12;;;;;;;8.27;4.85;;;20.60;99.90;;;;;;5096798;28;20039;-75
2022/07/24 00:04:38;;;;;;;6.20;4.93;;;20.60;99.90;;;;;;5117042;28;20387;-70
2022/07/24 00:07:04;;;;;;;7.32;5.28;;;20.50;99.90;;;;;;5114658;28;20507;-77
2022/07/24 00:09:30;;;;;;;6.07;4.60;;;20.50;99.90;;;;;;5084656;28;20036;-78
2022/07/24 00:11:56;;;;;;;10.88;5.68;;;20.50;99.90;;;;;;5077589;28;20040;-69
2022/07/24 00:14:22;;;;;;;6.63;4.78;;;20.50;99.90;;;;;;5096049;28;20027;-71
2022/07/24 00:16:48;;;;;;;10.10;5.38;;;20.40;99.90;;;;;;5096449;28;20039;-70
2022/07/24 00:19:14;;;;;;;9.63;5.05;;;20.50;99.90;;;;;;5096604;28;20051;-69
2022/07/24 00:21:39;;;;;;;8.48;5.18;;;20.40;99.90;;;;;;5112120;28;20403;-69
2022/07/24 00:24:05;;;;;;;7.40;5.05;;;20.50;99.90;;;;;;5096184;28;20044;-80
2022/07/24 00:26:31;;;;;;;7.10;5.10;;;20.50;99.90;;;;;;5108896;28;20050;-79
2022/07/24 00:28:57;;;;;;;6.85;5.25;;;20.50;99.90;;;;;;5116729;28;20395;-80
2022/07/24 00:31:23;;;;;;;8.45;5.47;;;20.30;99.90;;;;;;5116639;28;20070;-72
2022/07/24 00:33:48;;;;;;;6.10;4.63;;;20.30;99.90;;;;;;5097794;28;20044;-73
2022/07/24 00:36:15;;;;;;;7.68;5.22;;;20.20;99.90;;;;;;5116874;28;20040;-77
2022/07/24 00:38:42;;;;;;;6.95;4.82;;;;;;;;;;5116699;28;20119;-69
2022/07/24 00:41:07;;;;;;;7.97;4.88;;;20.20;99.90;;;;;;5116486;28;20044;-77
2022/07/24 00:43:33;;;;;;;7.00;4.75;;;20.20;99.90;;;;;;5116479;28;20104;-79
2022/07/24 00:45:59;;;;;;;10.98;5.60;;;20.20;99.90;;;;;;5116425;28;20046;-73
2022/07/24 00:48:25;;;;;;;8.30;5.57;;;20.10;99.90;;;;;;5116260;28;20138;-69
2022/07/24 00:50:51;;;;;;;6.93;5.05;;;20.10;99.90;;;;;;5116310;28;20038;-78
2022/07/24 00:53:17;;;;;;;7.85;5.20;;;20.00;99.90;;;;;;5116095;28;20031;-73
2022/07/24 00:55:44;;;;;;;7.63;4.38;;;20.00;99.90;;;;;;5116023;28;20032;-67
2022/07/24 00:58:10;;;;;;;6.80;4.65;;;19.90;99.90;;;;;;5116266;28;20418;-67
2022/07/24 01:00:35;;;;;;;6.35;4.45;;;19.90;99.90;;;;;;5116055;28;20399;-67
2022/07/24 01:03:01;;;;;;;6.53;4.75;;;20.00;99.90;;;;;;5115910;28;20081;-70
2022/07/24 01:05:27;;;;;;;6.63;4.82;;;20.00;99.90;;;;;;5114317;28;20032;-67
2022/07/24 01:07:53;;;;;;;8.07;4.45;;;20.00;99.90;;;;;;5115177;28;20047;-78
2022/07/24 01:10:19;;;;;;;6.45;4.78;;;20.00;99.90;;;;;;5115344;28;20043;-66
2022/07/24 01:12:44;;;;;;;6.55;4.68;;;20.00;99.90;;;;;;5096283;28;20085;-66
2022/07/24 01:15:11;;;;;;;7.97;4.25;;;19.90;99.90;;;;;;5115151;28;20055;-67
2022/07/24 01:17:40;;;;;;;8.75;4.70;;;19.90;99.90;;;;;;5115742;28;20051;-66
2022/07/24 01:20:07;;;;;;;6.78;4.40;;;19.90;99.90;;;;;;5097483;28;20032;-69
2022/07/24 01:22:33;;;;;;;7.88;5.13;;;19.90;99.90;;;;;;5097369;28;20081;-74
2022/07/24 01:24:59;;;;;;;8.18;4.63;;;20.00;99.90;;;;;;5115571;28;20086;-68
2022/07/24 01:27:25;;;;;;;7.53;4.55;;;19.90;99.90;;;;;;5097175;28;20063;-67
2022/07/24 01:29:52;;;;;;;7.15;4.82;;;19.90;99.90;;;;;;5115483;28;20046;-68
2022/07/24 01:32:18;;;;;;;5.57;4.22;;;19.90;99.90;;;;;;5115359;28;20050;-68
2022/07/24 01:34:44;;;;;;;6.63;4.97;;;19.80;99.90;;;;;;5115391;28;20063;-73
2022/07/24 01:37:09;;;;;;;8.02;4.70;;;19.90;99.90;;;;;;5115306;28;20541;-75
2022/07/24 01:39:35;;;;;;;8.02;5.10;;;19.90;99.90;;;;;;5105042;28;20048;-75
2022/07/24 01:42:01;;;;;;;6.90;4.45;;;20.00;99.90;;;;;;5095164;28;20028;-75
2022/07/24 01:44:27;;;;;;;6.00;4.20;;;20.00;99.90;;;;;;5115045;28;20560;-67
2022/07/24 01:46:53;;;;;;;7.63;4.68;;;19.90;99.90;;;;;;5114924;28;20032;-72
2022/07/24 01:49:19;;;;;;;6.45;4.22;;;19.90;99.90;;;;;;5114665;28;20048;-67
2022/07/24 01:51:44;;;;;;;5.85;4.20;;;19.90;99.90;;;;;;5095551;28;20062;-73
2022/07/24 01:54:10;;;;;;;5.90;4.28;;;19.80;99.90;;;;;;5114961;28;20092;-69
2022/07/24 01:56:36;;;;;;;9.18;5.07;;;19.80;99.90;;;;;;5114993;28;20046;-71
2022/07/24 01:59:02;;;;;;;9.52;5.10;;;19.80;99.90;;;;;;5114844;28;20035;-74
2022/07/24 02:01:29;;;;;;;7.78;5.03;;;19.80;99.90;;;;;;5114793;28;20132;-74
2022/07/24 02:03:55;;;;;;;6.53;4.97;;;19.80;99.90;;;;;;5096641;28;20110;-74
2022/07/24 02:06:23;;;;;;;7.10;4.68;;;19.90;99.90;;;;;;5114487;28;20504;-68
2022/07/24 02:08:49;;;;;;;8.18;5.30;;;19.90;99.90;;;;;;5096208;28;20407;-68
2022/07/24 02:11:15;;;;;;;5.65;4.28;;;19.80;99.90;;;;;;5114426;28;20153;-72
2022/07/24 02:13:41;;;;;;;6.22;4.43;;;19.80;99.90;;;;;;5114627;28;20130;-73
2022/07/24 02:16:07;;;;;;;6.93;4.90;;;19.90;99.90;;;;;;5114456;28;20043;-72
2022/07/24 02:18:32;;;;;;;7.80;4.80;;;19.90;99.90;;;;;;5114564;28;20483;-72
2022/07/24 02:20:58;;;;;;;6.78;4.53;;;19.90;99.90;;;;;;5113935;28;20042;-72
2022/07/24 02:23:24;;;;;;;6.95;4.68;;;19.80;99.90;;;;;;5114548;28;20035;-72
2022/07/24 02:25:50;;;;;;;8.23;4.65;;;19.70;99.90;;;;;;5114258;28;20043;-71
2022/07/24 02:28:17;;;;;;;10.40;4.90;;;19.80;99.90;;;;;;5114251;28;20086;-67
2022/07/24 02:30:43;;;;;;;5.28;4.30;;;19.80;99.90;;;;;;5114197;28;20126;-68
2022/07/24 02:33:09;;;;;;;7.50;4.35;;;19.80;99.90;;;;;;5114116;28;20067;-68
2022/07/24 02:35:36;;;;;;;5.88;4.30;;;19.70;99.90;;;;;;5113771;28;20032;-67
2022/07/24 02:38:02;;;;;;;7.60;4.57;;;19.60;99.90;;;;;;5113943;28;20384;-70
2022/07/24 02:40:28;;;;;;;10.13;5.10;;;19.60;99.90;;;;;;5113593;28;20039;-68
2022/07/24 02:42:54;;;;;;;7.75;4.22;;;19.50;99.90;;;;;;5113568;28;20088;-70
2022/07/24 02:45:19;;;;;;;5.10;4.05;;;19.50;99.90;;;;;;5104870;28;20027;-69
2022/07/24 02:47:50;;;;;;;8.38;4.75;;;19.40;99.90;;;;;;5113919;28;20109;-70
2022/07/24 02:50:16;;;;;;;;;;;19.50;99.90;;;;;;5096148;28;20040;-72
2022/07/24 02:52:42;;;;;;;7.28;4.55;;;19.60;99.90;;;;;;5113491;27;19908;-71
2022/07/24 02:55:09;;;;;;;9.90;4.65;;;19.50;99.90;;;;;;5086514;28;20096;-72
2022/07/24 02:57:35;;;;;;;6.82;4.32;;;19.50;99.90;;;;;;5093215;28;20040;-73
2022/07/24 03:00:03;;;;;;;7.57;5.00;;;19.50;99.90;;;;;;5093080;28;20043;-73
2022/07/24 03:02:29;;;;;;;7.25;5.03;;;19.50;99.90;;;;;;5093162;28;20035;-74
2022/07/24 03:04:55;;;;;;;8.38;4.60;;;19.50;99.90;;;;;;5093052;28;20043;-74
2022/07/24 03:07:20;;;;;;;7.63;4.85;;;19.50;99.90;;;;;;5093118;28;20040;-67
2022/07/24 03:09:46;;;;;;;6.88;4.65;;;19.40;99.90;;;;;;5093395;28;20040;-72
2022/07/24 03:12:12;;;;;;;7.60;4.57;;;19.40;99.90;;;;;;5093220;28;20071;-68
2022/07/24 03:14:38;;;;;;;8.90;5.20;;;19.40;99.90;;;;;;5093097;28;20503;-68
2022/07/24 03:17:04;;;;;;;8.38;4.55;;;19.30;99.90;;;;;;5092739;28;20074;-68
2022/07/24 03:19:30;;;;;;;6.68;4.90;;;19.40;99.90;;;;;;5111521;28;20071;-67
2022/07/24 03:21:56;;;;;;;7.60;4.47;;;19.40;99.90;;;;;;5095116;28;20059;-72
2022/07/24 03:24:21;;;;;;;8.05;4.72;;;19.30;99.90;;;;;;5112210;28;20073;-70
2022/07/24 03:26:47;;;;;;;6.95;4.70;;;19.30;99.90;;;;;;5113371;28;20067;-67
2022/07/24 03:29:13;;;;;;;5.05;4.32;;;19.20;99.90;;;;;;5113531;28;20054;-71
2022/07/24 03:31:38;;;;;;;8.55;5.25;;;19.30;99.90;;;;;;5113557;28;20122;-72
2022/07/24 03:34:05;;;;;;;7.20;4.55;;;19.30;99.90;;;;;;5113392;28;20043;-69
2022/07/24 03:36:32;;;;;;;7.35;5.25;;;19.20;99.90;;;;;;5113903;28;20031;-65
2022/07/24 03:38:58;;;;;;;8.93;5.40;;;19.20;99.90;;;;;;5117553;28;20039;-64
2022/07/24 03:41:23;;;;;;;6.70;4.93;;;19.20;99.90;;;;;;5117587;28;20569;-64
2022/07/24 03:43:49;;;;;;;6.65;4.57;;;19.30;99.90;;;;;;5117487;28;20078;-65
2022/07/24 03:46:15;;;;;;;6.78;4.72;;;19.30;99.90;;;;;;5117444;28;20067;-65
2022/07/24 03:48:41;;;;;;;7.07;4.63;;;19.30;99.90;;;;;;5117493;28;20051;-63
2022/07/24 03:51:07;;;;;;;7.32;5.43;;;;;;;;;;5117410;28;20064;-64
2022/07/24 03:53:33;;;;;;;14.13;5.10;;;;;;;;;;5117125;28;20040;-68
2022/07/24 03:55:59;;;;;;;7.00;4.88;;;;;;;;;;5116930;28;20122;-72
2022/07/24 03:58:25;;;;;;;8.55;5.70;;;;;;;;;;5117157;28;20058;-72
2022/07/24 04:00:51;;;;;;;7.57;5.22;;;;;;;;;;5117345;28;20040;-72
2022/07/24 04:03:17;;;;;;;10.55;6.03;;;;;;;;;;5098869;28;20070;-72
2022/07/24 04:05:44;;;;;;;9.40;5.35;;;;;;;;;;5117197;28;20546;-71
2022/07/24 04:08:10;;;;;;;7.55;5.38;;;;;;;;;;5116898;28;20051;-66
2022/07/24 04:10:36;;;;;;;7.72;4.85;;;;;;;;;;5095518;28;20048;-69
2022/07/24 04:13:02;;;;;;;8.35;5.35;;;;;;;;;;5102674;28;20082;-69
2022/07/24 04:15:28;;;;;;;7.70;5.20;;;;;;;;;;5095719;28;20093;-71
2022/07/24 04:17:54;;;;;;;10.07;5.47;;;;;;;;;;5096394;28;20051;-71
2022/07/24 04:20:20;;;;;;;8.10;5.32;;;;;;;;;;5096478;28;20047;-72
2022/07/24 04:22:47;;;;;;;7.10;4.85;;;;;;;;;;5096382;28;20411;-66
2022/07/24 04:25:13;;;;;;;6.85;4.80;;;;;;;;;;5095997;28;20123;-71
2022/07/24 04:27:40;;;;;;;7.03;5.13;;;;;;;;;;5096046;28;20078;-72
2022/07/24 04:30:06;;;;;;;7.43;5.10;;;;;;;;;;5095956;28;20205;-74
2022/07/24 04:32:32;;;;;;;9.60;5.65;;;;;;;;;;5096089;28;20105;-71
2022/07/24 04:34:58;;;;;;;9.02;5.47;;;;;;;;;;5096063;28;20028;-72
2022/07/24 04:37:24;;;;;;;7.45;4.78;;;;;;;;;;5095955;28;20572;-70
2022/07/24 04:39:50;;;;;;;8.27;5.85;;;;;;;;;;5095733;28;20028;-72
2022/07/24 04:42:17;;;;;;;12.32;4.78;;;;;;;;;;5095775;28;20105;-67
2022/07/24 04:44:43;;;;;;;7.30;5.22;;;;;;;;;;5095794;28;20036;-70
2022/07/24 04:47:09;;;;;;;8.95;5.38;;;;;;;;;;5077363;28;20044;-71
2022/07/24 04:49:35;;;;;;;7.30;5.38;;;;;;;;;;5094111;28;20574;-71
2022/07/24 04:52:01;;;;;;;8.57;5.43;;;;;;;;;;5095422;28;20044;-70
2022/07/24 04:54:27;;;;;;;8.13;5.45;;;19.20;99.90;;;;;;5095638;28;20051;-70
2022/07/24 04:56:52;;;;;;;9.15;6.20;;;19.00;99.90;;;;;;5095618;28;20044;-71
2022/07/24 04:59:18;;;;;;;7.93;5.60;;;19.10;99.90;;;;;;5095545;28;20114;-71
2022/07/24 05:01:44;;;;;;;8.13;5.35;;;19.10;99.90;;;;;;5095764;28;20059;-71
2022/07/24 05:04:10;;;;;;;6.82;5.20;;;19.20;99.90;;;;;;5095594;28;20028;-68
2022/07/24 05:06:36;;;;;;;7.30;4.72;;;19.20;99.90;;;;;;5095528;28;20372;-65
2022/07/24 05:09:02;;;;;;;8.63;5.18;;;19.30;99.90;;;;;;5095569;28;20066;-69
2022/07/24 05:11:27;;;;;;;7.90;5.28;;;19.40;99.90;;;;;;5095513;28;20130;-68
2022/07/24 05:13:53;;;;;;;7.07;4.63;;;19.40;99.90;;;;;;5095515;28;20117;-70
2022/07/24 05:16:19;;;;;;;7.10;5.57;;;19.40;99.90;;;;;;5095420;28;20065;-65
2022/07/24 05:18:45;;;;;;;6.53;4.95;;;19.40;99.90;;;;;;5095257;28;20522;-71
2022/07/24 05:21:10;;;;;;;8.20;5.75;;;19.40;99.90;;;;;;5111134;28;20567;-71
2022/07/24 05:23:36;;;;;;;8.50;5.90;;;19.40;99.90;;;;;;5115466;28;20498;-65
2022/07/24 05:26:02;;;;;;;9.23;5.78;;;19.40;99.90;;;;;;5115423;28;20065;-70
2022/07/24 05:28:27;;;;;;;8.02;5.45;;;19.60;99.90;;;;;;5115326;28;20051;-67
2022/07/24 05:30:53;;;;;;;8.35;5.53;;;19.60;99.90;;;;;;5115226;28;20046;-70
2022/07/24 05:33:19;;;;;;;9.43;6.07;;;19.80;99.90;;;;;;5115414;28;20043;-66
2022/07/24 05:35:45;;;;;;;7.07;4.97;;;20.10;99.90;;;;;;5115319;28;20414;-67
2022/07/24 05:38:10;;;;;;;7.32;5.10;;;20.10;99.90;;;;;;5115192;28;20015;-67
2022/07/24 05:40:36;;;;;;;7.88;5.43;;;20.20;99.90;;;;;;5115362;28;20040;-67
2022/07/24 05:43:02;;;;;;;8.57;5.50;;;20.40;99.90;;;;;;5115245;28;20070;-67
2022/07/24 05:45:28;;;;;;;7.25;4.90;;;20.40;99.90;;;;;;5096832;28;20126;-67
2022/07/24 05:47:53;;;;;;;8.45;5.75;;;20.50;99.90;;;;;;5115086;28;20460;-67
2022/07/24 05:50:19;;;;;;;7.15;5.50;;;20.70;99.90;;;;;;5115048;28;20123;-67
2022/07/24 05:52:45;;;;;;;6.72;5.10;;;20.80;99.90;;;;;;5114959;28;20047;-70
2022/07/24 05:55:11;;;;;;;8.88;5.85;;;20.90;99.90;;;;;;5114857;28;20039;-72
2022/07/24 05:57:37;;;;;;;9.80;6.00;;;21.00;99.90;;;;;;5114939;28;20035;-66
2022/07/24 06:00:03;;;;;;;7.43;5.38;;;21.30;99.90;;;;;;5114584;28;20044;-66
2022/07/24 06:02:29;;;;;;;7.57;5.43;;;21.40;99.90;;;;;;5114841;28;20043;-72
2022/07/24 06:04:55;;;;;;;7.65;5.75;;;21.70;99.90;;;;;;5096396;28;20157;-70
2022/07/24 06:07:20;;;;;;;9.10;5.35;;;21.80;99.90;;;;;;5098648;28;20051;-71
2022/07/24 06:09:46;;;;;;;8.10;5.82;;;22.00;99.90;;;;;;5114766;28;20089;-71
2022/07/24 06:12:12;;;;;;;8.35;5.18;;;22.10;99.90;;;;;;5114789;28;20051;-71
2022/07/24 06:14:38;;;;;;;7.45;5.85;;;22.00;99.90;;;;;;5114535;28;20571;-72
2022/07/24 06:17:03;;;;;;;7.85;5.70;;;22.20;99.90;;;;;;5114553;28;20425;-68
2022/07/24 06:19:29;;;;;;;7.28;5.53;;;22.20;99.90;;;;;;5095845;28;20499;-66
2022/07/24 06:21:55;;;;;;;9.02;5.93;;;22.40;99.90;;;;;;5114136;28;20073;-67
2022/07/24 06:24:21;;;;;;;8.88;5.95;;;;;;;;;;5114031;28;20039;-74
2022/07/24 06:26:47;;;;;;;8.07;5.82;;;22.90;99.90;;;;;;5113965;28;20082;-67
2022/07/24 06:29:12;;;;;;;7.60;5.78;;;22.90;99.90;;;;;;5114351;28;20063;-67
2022/07/24 06:31:38;;;;;;;7.00;5.40;;;23.20;99.90;;;;;;5114403;28;20074;-75
2022/07/24 06:34:04;;;;;;;8.45;5.63;;;23.40;99.90;;;;;;5095780;28;20864;-69
2022/07/24 06:36:30;;;;;;;8.57;5.13;;;;;;;;;;5113980;28;20126;-70
2022/07/24 06:38:56;;;;;;;6.65;4.97;;;23.50;99.90;;;;;;5113769;28;20123;-70
2022/07/24 06:41:21;;;;;;;7.75;5.15;;;23.70;99.90;;;;;;5095472;28;20126;-70
2022/07/24 06:43:47;;;;;;;7.53;5.18;;;22.90;99.90;;;;;;5114089;28;20035;-72
2022/07/24 06:46:13;;;;;;;7.90;5.15;;;23.30;99.90;;;;;;5095763;28;20031;-73
2022/07/24 06:48:39;;;;;;;8.23;5.15;;;23.80;99.90;;;;;;5095543;28;20051;-70
2022/07/24 06:51:05;;;;;;;8.90;5.70;;;24.30;99.90;;;;;;5113722;28;20815;-72
2022/07/24 06:53:31;;;;;;;7.15;5.03;;;24.70;99.90;;;;;;5113844;28;20176;-71
2022/07/24 06:55:56;;;;;;;7.78;4.95;;;25.00;99.90;;;;;;5113781;28;20479;-71
2022/07/24 06:58:22;;;;;;;5.40;4.47;;;24.70;99.90;;;;;;5113597;28;20122;-68
2022/07/24 07:00:49;;;;;;;8.00;5.00;;;24.70;99.90;;;;;;5113502;28;20073;-68
2022/07/24 07:03:15;;;;;;;8.25;5.28;;;24.80;99.90;;;;;;5113701;28;20063;-69
2022/07/24 07:05:41;;;;;;;5.75;4.78;;;25.20;99.90;;;;;;5113734;28;20114;-68
2022/07/24 07:08:07;;;;;;;7.97;5.45;;;24.90;99.90;;;;;;5113502;28;20165;-68
2022/07/24 07:10:33;;;;;;;7.35;5.00;;;25.00;99.90;;;;;;5112413;28;20035;-68
2022/07/24 07:12:59;;;;;;;7.40;5.03;;;25.10;99.90;;;;;;5111110;28;20126;-69
2022/07/24 07:15:25;;;;;;;7.50;4.90;;;24.80;99.90;;;;;;5111827;28;20042;-69
2022/07/24 07:17:50;;;;;;;9.02;5.45;;;25.00;99.90;;;;;;5111791;28;20040;-69
2022/07/24 07:20:16;;;;;;;7.72;5.60;;;25.20;99.90;;;;;;5111574;28;20446;-69
2022/07/24 07:22:42;;;;;;;7.57;5.30;;;25.40;99.90;;;;;;5111763;28;20367;-69
2022/07/24 07:25:09;;;;;;;6.07;4.68;;;25.50;99.90;;;;;;5112097;28;20035;-69
2022/07/24 07:27:36;;;;;;;6.07;4.90;;;25.70;99.90;;;;;;5095064;28;20514;-69
2022/07/24 07:30:06;;;;;;;9.20;5.97;;;25.90;99.90;;;;;;5113432;28;20032;-69
2022/07/24 07:32:31;;;;;;;9.32;5.60;;;25.90;99.90;;;;;;5113273;28;20047;-69
2022/07/24 07:34:58;;;;;;;7.88;5.80;;;25.10;99.90;;;;;;5112983;28;20440;-68
2022/07/24 07:37:23;;;;;;;7.05;5.20;;;25.50;99.90;;;;;;5113202;28;20051;-68
2022/07/24 07:39:49;;;;;;;7.03;5.22;;;26.00;99.90;;;;;;5099811;28;20043;-68
2022/07/24 07:42:15;;;;;;;12.15;5.07;;;26.10;99.90;;;;;;5091330;28;20052;-68
2022/07/24 07:44:41;;;;;;;9.32;5.68;;;25.70;99.40;;;;;;5090823;28;20032;-68
2022/07/24 07:47:07;;;;;;;8.25;5.22;;;25.40;99.20;;;;;;5090340;28;20131;-68
2022/07/24 07:49:33;;;;;;;5.85;5.07;;;25.50;99.80;;;;;;5092703;28;20791;-68
2022/07/24 07:51:59;;;;;;;10.27;4.80;;;25.30;99.90;;;;;;5091914;28;20040;-68
2022/07/24 07:54:25;;;;;;;5.95;4.80;;;25.30;99.90;;;;;;5098880;28;20126;-68
2022/07/24 07:56:50;;;;;;;8.50;4.65;;;25.10;99.90;;;;;;5111762;28;20118;-68
2022/07/24 07:59:16;;;;;;;7.45;5.15;;;25.60;99.80;;;;;;5110850;28;20050;-69
2022/07/24 08:01:42;;;;;;;8.25;5.07;;;26.30;99.10;;;;;;5094565;28;20036;-68
2022/07/24 08:04:08;;;;;;;6.90;5.10;;;26.00;99.00;;;;;;5111376;28;20495;-68
2022/07/24 08:06:33;;;;;;;9.48;5.25;;;25.50;99.30;;;;;;5092821;28;20047;-68
2022/07/24 08:08:59;;;;;;;7.15;4.90;;;25.60;99.30;;;;;;5111116;28;20054;-68
2022/07/24 08:11:25;;;;;;;7.70;4.88;;;26.00;99.20;;;;;;5111107;28;20039;-68
2022/07/24 08:13:51;;;;;;;9.60;6.28;;;26.30;99.00;;;;;;5108781;28;20050;-68
2022/07/24 08:16:17;;;;;;;7.45;5.38;;;25.80;98.90;;;;;;5108851;28;20152;-68
2022/07/24 08:18:43;;;;;;;8.35;4.70;;;25.60;99.20;;;;;;5110141;28;20052;-68
2022/07/24 08:21:08;;;;;;;6.53;5.03;;;25.80;99.00;;;;;;5111453;28;20130;-68
2022/07/24 08:23:34;;;;;;;6.80;4.80;;;26.40;98.70;;;;;;5114690;28;20119;-68
2022/07/24 08:26:00;;;;;;;8.23;5.40;;;26.60;98.30;;;;;;5115920;28;20040;-68
2022/07/24 08:28:26;;;;;;;5.50;4.65;;;26.70;98.70;;;;;;5116248;28;20077;-68
2022/07/24 08:30:51;;;;;;;9.80;5.65;;;26.70;97.90;;;;;;5116636;28;20046;-68
2022/07/24 08:33:17;;;;;;;6.60;5.22;;;27.00;97.90;;;;;;5116679;28;20088;-68
2022/07/24 08:35:43;;;;;;;7.05;5.07;;;26.70;97.40;;;;;;5116655;28;20418;-68
2022/07/24 08:38:09;;;;;;;9.52;5.05;;;26.40;98.00;;;;;;5116620;28;20050;-68
2022/07/24 08:40:38;;;;;;;7.68;5.80;;;27.00;97.70;;;;;;5116415;28;20036;-68
2022/07/24 08:43:05;;;;;;;7.72;5.00;;;26.50;97.60;;;;;;5116479;28;20127;-68
2022/07/24 08:45:34;;;;;;;7.32;5.25;;;26.80;97.10;;;;;;5116382;28;20032;-68
2022/07/24 08:48:04;;;;;;;7.82;5.55;;;26.90;97.10;;;;;;5116301;28;20044;-68
2022/07/24 08:50:31;;;;;;;6.25;5.10;;;26.20;97.30;;;;;;5116277;28;20035;-68
2022/07/24 08:52:58;;;;;;;9.57;5.55;;;26.40;97.30;;;;;;5116395;28;20047;-68
2022/07/24 08:55:23;;;;;;;7.90;5.38;;;26.40;97.50;;;;;;5116213;28;20052;-68
2022/07/24 08:57:49;;;;;;;6.82;5.45;;;26.70;97.30;;;;;;5116378;28;20079;-68
2022/07/24 09:00:15;;;;;;;8.02;5.75;;;26.20;96.70;;;;;;5115996;28;20048;-68
2022/07/24 09:02:41;;;;;;;7.38;5.50;;;26.50;96.60;;;;;;5116200;28;20487;-68
2022/07/24 09:05:08;;;;;;;5.88;4.68;;;26.20;97.20;;;;;;5116131;28;20044;-68
2022/07/24 09:07:34;;;;;;;7.78;4.90;;;26.50;97.00;;;;;;5115978;28;20031;-67
2022/07/24 09:10:03;;;;;;;8.32;5.40;;;27.40;97.10;;;;;;5115974;28;20051;-69
2022/07/24 09:12:35;;;;;;;6.38;5.57;;;26.90;96.60;;;;;;5115954;28;20042;-68
2022/07/24 09:15:10;;;;;;;9.02;5.60;;;26.90;96.40;;;;;;5115609;28;20046;-69
2022/07/24 09:17:35;;;;;;;6.78;5.13;;;27.40;96.30;;;;;;5115665;28;20383;-69
2022/07/24 09:20:02;;;;;;;7.45;4.57;;;27.00;96.10;;;;;;5115801;28;20047;-68
2022/07/24 09:22:38;;;;;;;9.73;5.82;;;27.00;96.50;;;;;;5115848;28;20118;-68
2022/07/24 09:25:07;;;;;;;7.15;5.75;;;26.80;96.00;;;;;;5086820;28;20373;-68
2022/07/24 09:27:39;;;;;;;8.05;5.28;;;26.70;96.10;;;;;;5087007;28;20052;-68
2022/07/24 09:30:07;;;;;;;8.85;5.30;;;27.00;95.90;;;;;;5095179;28;20054;-68
2022/07/24 09:32:33;;;;;;;8.30;5.45;;;27.20;95.40;;;;;;5090968;28;20082;-68
2022/07/24 09:34:59;;;;;;;8.32;5.53;;;27.20;95.40;;;;;;5096474;28;20071;-68
2022/07/24 09:37:27;;;;;;;7.55;5.70;;;26.90;95.10;;;;;;5115522;28;20433;-68
2022/07/24 09:39:58;;;;;;;8.23;6.00;;;27.00;95.20;;;;;;5108560;28;20483;-68
2022/07/24 09:42:30;;;;;;;7.25;5.30;;;27.30;95.20;;;;;;5076539;28;20074;-68
2022/07/24 09:45:00;;;;;;;8.60;5.25;;;27.60;94.80;;;;;;5094862;28;20044;-67
2022/07/24 09:47:31;;;;;;;7.82;5.20;;;27.70;94.40;;;;;;5094759;28;20110;-68
2022/07/24 09:50:11;;;;;;;6.65;5.70;;;27.40;94.10;;;;;;5094708;28;20123;-68
2022/07/24 09:52:41;;;;;;;6.47;5.05;;;27.50;94.70;;;;;;5104522;27;20081;-68
2022/07/24 09:55:20;;;;;;;8.23;5.18;;;27.70;94.60;;;;;;5100395;28;20503;-68
2022/07/24 09:57:46;;;;;;;7.40;5.32;;;27.40;94.30;;;;;;5094271;28;20434;-68
2022/07/24 10:00:12;;;;;;;6.03;4.85;;;28.20;93.50;;;;;;5094153;28;20048;-67
2022/07/24 10:02:42;;;;;;;7.80;5.38;;;28.40;92.60;;;;;;5093306;28;20078;-68
2022/07/24 10:05:09;;;;;;;7.20;4.70;;;28.00;93.20;;;;;;5093473;28;20066;-68
2022/07/24 10:07:36;;;;;;;6.93;5.22;;;27.60;93.60;;;;;;5093244;28;20298;-68
2022/07/24 10:10:03;;;;;;;7.35;5.90;;;28.10;93.10;;;;;;5104624;28;20045;-68
2022/07/24 10:12:31;;;;;;;7.93;5.28;;;27.70;93.20;;;;;;5113203;28;20438;-68
2022/07/24 10:14:59;;;;;;;6.47;5.32;;;27.40;93.20;;;;;;5114082;28;20043;-68
2022/07/24 10:18:00;;;;;;;9.45;5.85;;;27.50;93.60;;;;;;5113785;28;20027;-68
2022/07/24 10:20:40;;;;;;;6.57;5.13;;;27.80;93.60;;;;;;5075148;28;20482;-68
2022/07/24 10:23:06;;;;;;;10.55;8.20;;;27.90;93.30;;;;;;5114372;28;20074;-68
2022/07/24 10:25:54;;;;;;;7.03;5.25;;;27.30;93.40;;;;;;5114356;28;20422;-68
2022/07/24 10:28:42;;;;;;;8.57;6.07;;;27.40;93.70;;;;;;5114237;28;20134;-68
2022/07/24 10:31:13;;;;;;;7.93;5.60;;;27.70;93.60;;;;;;5114167;28;20088;-68
2022/07/24 10:33:42;;;;;;;8.25;5.60;;;28.00;93.10;;;;;;5113490;28;20089;-68
2022/07/24 10:36:25;;;;;;;6.22;4.85;;;28.20;92.90;;;;;;5113591;28;20076;-67
2022/07/24 10:39:04;;;;;;;6.57;5.25;;;27.70;92.30;;;;;;5114007;28;20063;-68
2022/07/24 10:41:31;;;;;;;6.77;5.43;;;27.70;93.30;;;;;;5114151;28;20452;-68
2022/07/24 10:44:17;;;;;;;9.15;5.68;;;28.20;92.60;;;;;;5113911;28;20274;-68
2022/07/24 10:47:01;;;;;;;6.78;5.45;;;28.10;92.30;;;;;;5113698;28;20055;-68
2022/07/24 10:49:44;;;;;;;5.82;5.07;;;28.30;92.90;;;;;;5114037;28;20047;-68
2022/07/24 10:52:12;;;;;;;7.65;5.70;;;28.50;91.80;;;;;;5113918;28;20040;-68
2022/07/24 10:54:39;;;;;;;7.78;6.00;;;27.80;92.20;;;;;;5113878;28;20046;-68
2022/07/24 10:57:05;;;;;;;8.38;5.78;;;27.90;92.10;;;;;;5113787;28;20039;-68
2022/07/24 10:59:37;;;;;;;7.65;5.75;;;28.30;92.30;;;;;;5113484;28;20039;-71
2022/07/24 11:02:29;;;;;;;7.65;5.22;;;28.10;92.10;;;;;;5113693;28;20070;-68
2022/07/24 11:05:26;;;;;;;6.75;5.45;;;28.00;92.40;;;;;;5113674;28;20040;-68
2022/07/24 11:08:17;;;;;;;8.95;5.88;;;28.10;92.20;;;;;;5095287;28;20212;-68
2022/07/24 11:10:48;;;;;;;7.45;5.55;;;27.90;92.00;;;;;;5111797;28;20039;-69
2022/07/24 11:13:32;;;;;;;9.95;6.60;;;27.90;91.90;;;;;;5113020;28;20065;-68
2022/07/24 11:16:10;;;;;;;7.40;5.15;;;28.70;92.00;;;;;;5113329;28;20066;-68
2022/07/24 11:18:39;;;;;;;7.55;5.53;;;29.10;91.20;;;;;;5110651;28;20581;-68
2022/07/24 11:21:06;;;;;;;11.75;5.70;;;28.60;91.20;;;;;;5110690;28;20045;-67
2022/07/24 11:23:32;;;;;;;7.47;5.40;;;28.50;90.70;;;;;;5111840;28;20093;-68
2022/07/24 11:26:31;;;;;;;7.72;5.53;;;28.90;91.00;;;;;;5112088;28;20047;-68
2022/07/24 11:29:23;;;;;;;7.50;6.17;;;28.50;90.70;;;;;;5112299;28;20405;-68
2022/07/24 11:32:05;;;;;;;9.98;5.80;;;28.70;91.10;;;;;;5093924;28;20036;-68
2022/07/24 11:34:32;;;;;;;6.32;4.93;;;28.40;91.00;;;;;;5112221;28;20047;-67
2022/07/24 11:36:58;;;;;;;5.80;5.10;;;28.10;90.80;;;;;;5094002;28;20118;-67
2022/07/24 11:39:32;;;;;;;6.32;5.20;;;28.40;90.70;;;;;;5113227;28;20123;-68
2022/07/24 11:42:09;;;;;;;7.80;5.57;;;28.40;90.20;;;;;;5113181;28;20096;-67
2022/07/24 11:44:49;;;;;;;7.03;5.15;;;29.70;99.90;;;;;;5113176;28;20130;-67
2022/07/24 11:47:16;;;;;;;5.95;5.07;;;29.50;89.30;;;;;;5112998;28;20050;-67
2022/07/24 11:49:54;;;;;;;5.32;4.55;;;29.00;89.20;;;;;;5112883;28;20046;-67
2022/07/24 11:52:30;;;;;;;6.45;5.10;;;29.20;89.40;;;;;;5113109;28;20119;-67
2022/07/24 11:55:00;;;;;;;6.45;4.90;;;29.50;88.80;;;;;;5113217;28;20050;-67
2022/07/24 11:57:28;;;;;;;6.47;5.20;;;29.80;87.30;;;;;;5095064;28;20043;-67
2022/07/24 11:59:54;;;;;;;7.00;5.65;;;30.10;88.50;;;;;;5117052;28;20591;-67
2022/07/24 12:02:21;;;;;;;7.97;4.50;;;29.80;87.90;;;;;;5117185;28;20043;-67
2022/07/24 12:04:48;;;;;;;7.50;4.60;;;29.80;87.20;;;;;;5117037;28;20473;-67
2022/07/24 12:07:26;;;;;;;7.30;5.53;;;29.10;87.60;;;;;;5116783;28;20087;-67
2022/07/24 12:09:57;;;;;;;6.85;4.25;;;29.30;84.80;;;;;;5116627;28;20044;-67
2022/07/24 12:12:26;;;;;;;5.70;4.93;;;29.40;81.40;;;;;;5116723;28;20075;-67
2022/07/24 12:15:01;;;;;;;6.63;3.90;;;29.60;82.30;;;;;;5117056;28;20055;-67
2022/07/24 12:17:27;;;;;;;6.35;4.63;;;29.60;81.70;;;;;;5113730;28;20039;-67
2022/07/24 12:19:58;;;;;;;6.20;4.93;;;29.30;84.10;;;;;;5095046;28;20027;-67
2022/07/24 12:22:25;;;;;;;5.03;4.45;;;29.20;85.10;;;;;;5115020;28;20043;-67
2022/07/24 12:24:52;;;;;;;6.50;4.32;;;29.10;83.30;;;;;;5116704;28;20031;-67
2022/07/24 12:27:41;;;;;;;6.07;4.60;;;29.40;84.40;;;;;;5116409;28;20040;-66
2022/07/24 12:30:44;;;;;;;6.30;4.22;;;29.20;83.10;;;;;;5116783;28;20111;-67
2022/07/24 12:33:17;;;;;;;6.63;5.13;;;29.90;83.70;;;;;;5013757;28;20113;-67
2022/07/24 12:35:56;;;;;;;6.82;4.90;;;29.60;83.00;;;;;;5100927;28;20490;-68
2022/07/24 12:38:28;;;;;;;5.97;4.33;;;29.40;82.40;;;;;;5116034;28;20502;-67
2022/07/24 12:41:03;;;;;;;6.45;4.60;;;30.00;81.70;;;;;;5116457;28;20043;-67
2022/07/24 12:43:30;;;;;;;4.88;4.35;;;;;;;;;;5116439;28;20126;-67
2022/07/24 12:46:06;;;;;;;5.95;4.90;;;30.90;89.20;;;;;;5116192;28;20046;-67
2022/07/24 12:48:32;;;;;;;4.97;4.47;;;30.30;80.10;;;;;;5116070;28;20642;-67
2022/07/24 12:51:10;;;;;;;5.72;4.57;;;30.20;79.00;;;;;;5104644;28;20138;-67
2022/07/24 12:53:39;;;;;;;4.63;3.78;;;29.80;78.20;;;;;;5090505;28;20063;-67
2022/07/24 12:56:07;;;;;;;6.30;4.18;;;30.00;77.80;;;;;;5094643;28;20119;-67
2022/07/24 12:59:00;;;;;;;4.78;4.03;;;30.00;77.80;;;;;;5097458;28;20506;-67
2022/07/24 13:01:42;;;;;;;5.05;4.15;;;30.30;78.60;;;;;;5095347;28;20051;-67